sensor_id;sensor_type;location;lat;lon;timestamp;P1;durP1;ratioP1;P2;durP2;ratioP2
60078;SDS011;45951;45.824;8.824;2023-06-26T00:00:59;5.95;;;3.78;;
60078;SDS011;45951;45.824;8.824;2023-06-26T00:02:39;5.45;;;3.65;;
60078;SDS011;45951;45.824;8.824;2023-06-26T00:04:19;9.30;;;3.85;;
60078;SDS011;45951;45.824;8.824;2023-06-26T00:06:00;5.00;;;3.80;;
60078;SDS011;45951;45.824;8.824;2023-06-26T00:07:40;5.47;;;3.50;;
60078;SDS011;45951;45.824;8.824;2023-06-26T00:09:20;5.72;;;3.78;;
60078;SDS011;45951;45.824;8.824;2023-06-26T00:11:01;5.57;;;3.40;;
60078;SDS011;45951;45.824;8.824;2023-06-26T00:12:41;4.88;;;3.38;;
60078;SDS011;45951;45.824;8.824;2023-06-26T00:14:21;5.30;;;3.80;;
60078;SDS011;45951;45.824;8.824;2023-06-26T00:16:02;5.35;;;3.70;;
60078;SDS011;45951;45.824;8.824;2023-06-26T00:17:43;5.90;;;3.90;;
60078;SDS011;45951;45.824;8.824;2023-06-26T00:19:24;5.70;;;3.90;;
60078;SDS011;45951;45.824;8.824;2023-06-26T00:21:05;5.20;;;3.55;;
60078;SDS011;45951;45.824;8.824;2023-06-26T00:22:45;5.93;;;3.40;;
60078;SDS011;45951;45.824;8.824;2023-06-26T00:24:26;5.72;;;3.95;;
60078;SDS011;45951;45.824;8.824;2023-06-26T00:26:06;6.32;;;4.00;;
60078;SDS011;45951;45.824;8.824;2023-06-26T00:27:47;7.38;;;3.88;;
60078;SDS011;45951;45.824;8.824;2023-06-26T00:29:27;5.25;;;3.85;;
60078;SDS011;45951;45.824;8.824;2023-06-26T00:31:07;5.30;;;3.50;;
60078;SDS011;45951;45.824;8.824;2023-06-26T00:32:47;6.88;;;4.00;;
60078;SDS011;45951;45.824;8.824;2023-06-26T00:34:28;4.07;;;3.10;;
60078;SDS011;45951;45.824;8.824;2023-06-26T00:36:08;6.00;;;3.72;;
60078;SDS011;45951;45.824;8.824;2023-06-26T00:37:48;5.40;;;3.83;;
60078;SDS011;45951;45.824;8.824;2023-06-26T00:39:29;6.38;;;3.75;;
60078;SDS011;45951;45.824;8.824;2023-06-26T00:41:09;4.95;;;3.50;;
60078;SDS011;45951;45.824;8.824;2023-06-26T00:42:52;5.28;;;3.70;;
60078;SDS011;45951;45.824;8.824;2023-06-26T00:44:32;6.50;;;3.65;;
60078;SDS011;45951;45.824;8.824;2023-06-26T00:46:13;5.55;;;3.50;;
60078;SDS011;45951;45.824;8.824;2023-06-26T00:47:54;4.68;;;3.70;;
60078;SDS011;45951;45.824;8.824;2023-06-26T00:49:35;5.53;;;3.72;;
60078;SDS011;45951;45.824;8.824;2023-06-26T00:51:15;5.20;;;3.60;;
60078;SDS011;45951;45.824;8.824;2023-06-26T00:52:56;5.80;;;3.58;;
60078;SDS011;45951;45.824;8.824;2023-06-26T00:54:40;5.30;;;3.75;;
60078;SDS011;45951;45.824;8.824;2023-06-26T00:56:20;5.20;;;3.75;;
60078;SDS011;45951;45.824;8.824;2023-06-26T00:58:01;5.47;;;3.80;;
60078;SDS011;45951;45.824;8.824;2023-06-26T00:59:41;4.47;;;3.80;;
60078;SDS011;45951;45.824;8.824;2023-06-26T01:01:21;6.45;;;4.22;;
60078;SDS011;45951;45.824;8.824;2023-06-26T01:03:05;5.57;;;4.28;;
60078;SDS011;45951;45.824;8.824;2023-06-26T01:04:49;7.10;;;4.32;;
60078;SDS011;45951;45.824;8.824;2023-06-26T01:06:29;6.30;;;4.30;;
60078;SDS011;45951;45.824;8.824;2023-06-26T01:08:16;5.88;;;4.60;;
60078;SDS011;45951;45.824;8.824;2023-06-26T01:09:56;6.05;;;4.30;;
60078;SDS011;45951;45.824;8.824;2023-06-26T01:11:36;6.28;;;4.65;;
60078;SDS011;45951;45.824;8.824;2023-06-26T01:13:17;6.25;;;4.50;;
60078;SDS011;45951;45.824;8.824;2023-06-26T01:14:58;5.70;;;4.40;;
60078;SDS011;45951;45.824;8.824;2023-06-26T01:16:39;5.40;;;4.40;;
60078;SDS011;45951;45.824;8.824;2023-06-26T01:18:20;6.00;;;4.57;;
60078;SDS011;45951;45.824;8.824;2023-06-26T01:20:01;6.88;;;4.57;;
60078;SDS011;45951;45.824;8.824;2023-06-26T01:21:46;5.40;;;4.70;;
60078;SDS011;45951;45.824;8.824;2023-06-26T01:23:38;5.30;;;4.07;;
60078;SDS011;45951;45.824;8.824;2023-06-26T01:27:32;5.63;;;4.30;;
60078;SDS011;45951;45.824;8.824;2023-06-26T01:29:13;5.80;;;4.70;;
60078;SDS011;45951;45.824;8.824;2023-06-26T01:30:54;5.65;;;4.32;;
60078;SDS011;45951;45.824;8.824;2023-06-26T01:32:35;5.88;;;4.40;;
60078;SDS011;45951;45.824;8.824;2023-06-26T01:34:16;6.78;;;4.55;;
60078;SDS011;45951;45.824;8.824;2023-06-26T01:35:57;5.78;;;4.50;;
60078;SDS011;45951;45.824;8.824;2023-06-26T01:37:38;6.07;;;4.13;;
60078;SDS011;45951;45.824;8.824;2023-06-26T01:39:18;5.72;;;4.40;;
60078;SDS011;45951;45.824;8.824;2023-06-26T01:40:59;5.60;;;4.30;;
60078;SDS011;45951;45.824;8.824;2023-06-26T01:42:39;6.50;;;4.30;;
60078;SDS011;45951;45.824;8.824;2023-06-26T01:44:29;5.80;;;4.25;;
60078;SDS011;45951;45.824;8.824;2023-06-26T01:46:15;5.85;;;4.28;;
60078;SDS011;45951;45.824;8.824;2023-06-26T01:47:58;6.60;;;4.28;;
60078;SDS011;45951;45.824;8.824;2023-06-26T01:49:43;6.30;;;4.15;;
60078;SDS011;45951;45.824;8.824;2023-06-26T01:51:30;5.67;;;3.83;;
60078;SDS011;45951;45.824;8.824;2023-06-26T01:53:11;6.47;;;4.65;;
60078;SDS011;45951;45.824;8.824;2023-06-26T01:57:05;5.78;;;4.47;;
60078;SDS011;45951;45.824;8.824;2023-06-26T01:58:47;5.05;;;3.72;;
60078;SDS011;45951;45.824;8.824;2023-06-26T02:00:27;5.65;;;4.13;;
60078;SDS011;45951;45.824;8.824;2023-06-26T02:02:08;5.90;;;4.15;;
60078;SDS011;45951;45.824;8.824;2023-06-26T02:03:48;6.03;;;4.20;;
60078;SDS011;45951;45.824;8.824;2023-06-26T02:05:29;5.47;;;4.30;;
60078;SDS011;45951;45.824;8.824;2023-06-26T02:07:10;5.50;;;4.20;;
60078;SDS011;45951;45.824;8.824;2023-06-26T02:08:51;5.63;;;3.97;;
60078;SDS011;45951;45.824;8.824;2023-06-26T02:10:31;5.28;;;4.28;;
60078;SDS011;45951;45.824;8.824;2023-06-26T02:12:11;5.45;;;4.05;;
60078;SDS011;45951;45.824;8.824;2023-06-26T02:13:52;5.72;;;4.10;;
60078;SDS011;45951;45.824;8.824;2023-06-26T02:15:32;8.27;;;4.38;;
60078;SDS011;45951;45.824;8.824;2023-06-26T02:17:12;5.22;;;4.18;;
60078;SDS011;45951;45.824;8.824;2023-06-26T02:18:53;5.40;;;3.75;;
60078;SDS011;45951;45.824;8.824;2023-06-26T02:20:33;5.50;;;4.10;;
60078;SDS011;45951;45.824;8.824;2023-06-26T02:22:14;6.07;;;4.32;;
60078;SDS011;45951;45.824;8.824;2023-06-26T02:23:55;5.43;;;4.00;;
60078;SDS011;45951;45.824;8.824;2023-06-26T02:25:35;6.38;;;3.92;;
60078;SDS011;45951;45.824;8.824;2023-06-26T02:27:15;4.70;;;3.53;;
60078;SDS011;45951;45.824;8.824;2023-06-26T02:28:56;5.18;;;4.20;;
60078;SDS011;45951;45.824;8.824;2023-06-26T02:30:36;7.90;;;4.90;;
60078;SDS011;45951;45.824;8.824;2023-06-26T02:32:16;6.18;;;4.68;;
60078;SDS011;45951;45.824;8.824;2023-06-26T02:33:57;5.70;;;4.30;;
60078;SDS011;45951;45.824;8.824;2023-06-26T02:35:37;5.50;;;4.10;;
60078;SDS011;45951;45.824;8.824;2023-06-26T02:37:18;5.82;;;4.07;;
60078;SDS011;45951;45.824;8.824;2023-06-26T02:38:58;5.38;;;3.90;;
60078;SDS011;45951;45.824;8.824;2023-06-26T02:40:38;5.45;;;4.05;;
60078;SDS011;45951;45.824;8.824;2023-06-26T02:42:19;7.50;;;4.68;;
60078;SDS011;45951;45.824;8.824;2023-06-26T02:43:59;6.50;;;4.25;;
60078;SDS011;45951;45.824;8.824;2023-06-26T02:45:39;5.75;;;4.03;;
60078;SDS011;45951;45.824;8.824;2023-06-26T02:47:19;9.18;;;4.40;;
60078;SDS011;45951;45.824;8.824;2023-06-26T02:49:00;7.35;;;4.43;;
60078;SDS011;45951;45.824;8.824;2023-06-26T02:50:40;6.00;;;4.38;;
60078;SDS011;45951;45.824;8.824;2023-06-26T02:52:20;7.63;;;4.25;;
60078;SDS011;45951;45.824;8.824;2023-06-26T02:54:01;6.65;;;4.20;;
60078;SDS011;45951;45.824;8.824;2023-06-26T02:55:41;5.95;;;4.70;;
60078;SDS011;45951;45.824;8.824;2023-06-26T02:57:21;7.00;;;4.57;;
60078;SDS011;45951;45.824;8.824;2023-06-26T02:59:02;5.60;;;4.32;;
60078;SDS011;45951;45.824;8.824;2023-06-26T03:00:42;7.15;;;4.15;;
60078;SDS011;45951;45.824;8.824;2023-06-26T03:02:23;5.95;;;4.13;;
60078;SDS011;45951;45.824;8.824;2023-06-26T03:04:03;6.97;;;4.50;;
60078;SDS011;45951;45.824;8.824;2023-06-26T03:05:44;5.82;;;4.00;;
60078;SDS011;45951;45.824;8.824;2023-06-26T03:07:27;7.57;;;4.40;;
60078;SDS011;45951;45.824;8.824;2023-06-26T03:09:07;7.10;;;4.07;;
60078;SDS011;45951;45.824;8.824;2023-06-26T03:10:50;6.38;;;4.13;;
60078;SDS011;45951;45.824;8.824;2023-06-26T03:12:31;5.40;;;4.10;;
60078;SDS011;45951;45.824;8.824;2023-06-26T03:14:11;7.53;;;4.22;;
60078;SDS011;45951;45.824;8.824;2023-06-26T03:15:51;5.72;;;4.00;;
60078;SDS011;45951;45.824;8.824;2023-06-26T03:17:32;6.25;;;4.30;;
60078;SDS011;45951;45.824;8.824;2023-06-26T03:19:12;7.03;;;4.25;;
60078;SDS011;45951;45.824;8.824;2023-06-26T03:20:53;6.18;;;4.03;;
60078;SDS011;45951;45.824;8.824;2023-06-26T03:22:34;6.78;;;4.60;;
60078;SDS011;45951;45.824;8.824;2023-06-26T03:24:15;5.50;;;4.25;;
60078;SDS011;45951;45.824;8.824;2023-06-26T03:25:55;6.07;;;4.43;;
60078;SDS011;45951;45.824;8.824;2023-06-26T03:27:35;5.40;;;3.90;;
60078;SDS011;45951;45.824;8.824;2023-06-26T03:29:16;7.22;;;4.30;;
60078;SDS011;45951;45.824;8.824;2023-06-26T03:30:56;6.00;;;4.45;;
60078;SDS011;45951;45.824;8.824;2023-06-26T03:32:36;5.30;;;4.28;;
60078;SDS011;45951;45.824;8.824;2023-06-26T03:34:17;6.28;;;4.10;;
60078;SDS011;45951;45.824;8.824;2023-06-26T03:35:57;6.00;;;3.95;;
60078;SDS011;45951;45.824;8.824;2023-06-26T03:37:39;6.35;;;4.00;;
60078;SDS011;45951;45.824;8.824;2023-06-26T03:39:20;6.28;;;4.50;;
60078;SDS011;45951;45.824;8.824;2023-06-26T03:41:00;5.40;;;3.92;;
60078;SDS011;45951;45.824;8.824;2023-06-26T03:42:41;7.57;;;4.30;;
60078;SDS011;45951;45.824;8.824;2023-06-26T03:44:22;5.60;;;3.97;;
60078;SDS011;45951;45.824;8.824;2023-06-26T03:46:02;6.60;;;4.13;;
60078;SDS011;45951;45.824;8.824;2023-06-26T03:47:42;6.72;;;4.15;;
60078;SDS011;45951;45.824;8.824;2023-06-26T03:49:23;6.88;;;4.38;;
60078;SDS011;45951;45.824;8.824;2023-06-26T03:51:03;5.80;;;4.00;;
60078;SDS011;45951;45.824;8.824;2023-06-26T03:52:44;8.77;;;4.15;;
60078;SDS011;45951;45.824;8.824;2023-06-26T03:54:24;5.30;;;3.97;;
60078;SDS011;45951;45.824;8.824;2023-06-26T03:56:04;5.82;;;3.88;;
60078;SDS011;45951;45.824;8.824;2023-06-26T03:57:45;6.10;;;3.88;;
60078;SDS011;45951;45.824;8.824;2023-06-26T03:59:25;5.32;;;4.13;;
60078;SDS011;45951;45.824;8.824;2023-06-26T04:01:06;4.97;;;3.80;;
60078;SDS011;45951;45.824;8.824;2023-06-26T04:02:46;5.78;;;3.83;;
60078;SDS011;45951;45.824;8.824;2023-06-26T04:04:26;5.70;;;4.05;;
60078;SDS011;45951;45.824;8.824;2023-06-26T04:06:07;5.28;;;4.20;;
60078;SDS011;45951;45.824;8.824;2023-06-26T04:07:49;6.03;;;3.97;;
60078;SDS011;45951;45.824;8.824;2023-06-26T04:09:31;5.50;;;3.92;;
60078;SDS011;45951;45.824;8.824;2023-06-26T04:11:11;7.00;;;4.15;;
60078;SDS011;45951;45.824;8.824;2023-06-26T04:12:51;6.18;;;4.35;;
60078;SDS011;45951;45.824;8.824;2023-06-26T04:14:32;5.47;;;4.10;;
60078;SDS011;45951;45.824;8.824;2023-06-26T04:16:12;5.60;;;3.88;;
60078;SDS011;45951;45.824;8.824;2023-06-26T04:17:52;6.63;;;4.47;;
60078;SDS011;45951;45.824;8.824;2023-06-26T04:19:32;6.90;;;4.07;;
60078;SDS011;45951;45.824;8.824;2023-06-26T04:21:13;6.72;;;4.50;;
60078;SDS011;45951;45.824;8.824;2023-06-26T04:22:54;7.75;;;4.35;;
60078;SDS011;45951;45.824;8.824;2023-06-26T04:24:34;8.32;;;4.43;;
60078;SDS011;45951;45.824;8.824;2023-06-26T04:26:14;7.32;;;4.55;;
60078;SDS011;45951;45.824;8.824;2023-06-26T04:27:55;7.45;;;4.47;;
60078;SDS011;45951;45.824;8.824;2023-06-26T04:29:35;6.03;;;4.45;;
60078;SDS011;45951;45.824;8.824;2023-06-26T04:31:15;5.65;;;4.00;;
60078;SDS011;45951;45.824;8.824;2023-06-26T04:32:56;8.27;;;5.20;;
60078;SDS011;45951;45.824;8.824;2023-06-26T04:34:38;12.13;;;4.57;;
60078;SDS011;45951;45.824;8.824;2023-06-26T04:36:22;7.25;;;4.53;;
60078;SDS011;45951;45.824;8.824;2023-06-26T04:38:03;6.05;;;4.15;;
60078;SDS011;45951;45.824;8.824;2023-06-26T04:39:43;7.22;;;4.15;;
60078;SDS011;45951;45.824;8.824;2023-06-26T04:41:23;7.38;;;4.05;;
60078;SDS011;45951;45.824;8.824;2023-06-26T04:43:04;5.72;;;4.47;;
60078;SDS011;45951;45.824;8.824;2023-06-26T04:44:44;6.20;;;4.22;;
60078;SDS011;45951;45.824;8.824;2023-06-26T04:46:24;5.15;;;3.90;;
60078;SDS011;45951;45.824;8.824;2023-06-26T04:48:05;5.38;;;4.10;;
60078;SDS011;45951;45.824;8.824;2023-06-26T04:49:45;7.00;;;4.60;;
60078;SDS011;45951;45.824;8.824;2023-06-26T04:51:26;5.93;;;4.47;;
60078;SDS011;45951;45.824;8.824;2023-06-26T04:53:07;6.82;;;4.55;;
60078;SDS011;45951;45.824;8.824;2023-06-26T04:54:47;6.68;;;4.30;;
60078;SDS011;45951;45.824;8.824;2023-06-26T04:56:27;8.10;;;4.47;;
60078;SDS011;45951;45.824;8.824;2023-06-26T04:58:07;5.95;;;3.60;;
60078;SDS011;45951;45.824;8.824;2023-06-26T04:59:48;5.65;;;4.00;;
60078;SDS011;45951;45.824;8.824;2023-06-26T05:01:28;7.00;;;4.40;;
60078;SDS011;45951;45.824;8.824;2023-06-26T05:03:10;5.82;;;4.00;;
60078;SDS011;45951;45.824;8.824;2023-06-26T05:04:52;5.82;;;4.10;;
60078;SDS011;45951;45.824;8.824;2023-06-26T05:06:32;5.38;;;4.30;;
60078;SDS011;45951;45.824;8.824;2023-06-26T05:08:16;9.90;;;4.45;;
60078;SDS011;45951;45.824;8.824;2023-06-26T05:09:57;5.85;;;4.22;;
60078;SDS011;45951;45.824;8.824;2023-06-26T05:11:38;6.22;;;4.18;;
60078;SDS011;45951;45.824;8.824;2023-06-26T05:13:19;8.13;;;4.20;;
60078;SDS011;45951;45.824;8.824;2023-06-26T05:14:59;8.85;;;5.00;;
60078;SDS011;45951;45.824;8.824;2023-06-26T05:16:40;9.38;;;5.07;;
60078;SDS011;45951;45.824;8.824;2023-06-26T05:18:20;8.07;;;4.90;;
60078;SDS011;45951;45.824;8.824;2023-06-26T05:20:00;6.50;;;4.53;;
60078;SDS011;45951;45.824;8.824;2023-06-26T05:21:41;7.88;;;5.10;;
60078;SDS011;45951;45.824;8.824;2023-06-26T05:23:21;7.15;;;4.95;;
60078;SDS011;45951;45.824;8.824;2023-06-26T05:25:06;7.05;;;4.93;;
60078;SDS011;45951;45.824;8.824;2023-06-26T05:26:49;7.38;;;5.20;;
60078;SDS011;45951;45.824;8.824;2023-06-26T05:28:29;7.28;;;4.40;;
60078;SDS011;45951;45.824;8.824;2023-06-26T05:30:14;7.05;;;5.30;;
60078;SDS011;45951;45.824;8.824;2023-06-26T05:31:55;6.47;;;5.00;;
60078;SDS011;45951;45.824;8.824;2023-06-26T05:33:36;6.28;;;5.10;;
60078;SDS011;45951;45.824;8.824;2023-06-26T05:35:17;5.93;;;4.60;;
60078;SDS011;45951;45.824;8.824;2023-06-26T05:36:58;10.98;;;5.20;;
60078;SDS011;45951;45.824;8.824;2023-06-26T05:38:39;5.93;;;4.40;;
60078;SDS011;45951;45.824;8.824;2023-06-26T05:40:19;6.28;;;4.65;;
60078;SDS011;45951;45.824;8.824;2023-06-26T05:42:00;8.90;;;5.68;;
60078;SDS011;45951;45.824;8.824;2023-06-26T05:43:41;6.47;;;4.90;;
60078;SDS011;45951;45.824;8.824;2023-06-26T05:45:21;5.88;;;4.65;;
60078;SDS011;45951;45.824;8.824;2023-06-26T05:47:01;9.15;;;4.88;;
60078;SDS011;45951;45.824;8.824;2023-06-26T05:48:42;6.43;;;4.63;;
60078;SDS011;45951;45.824;8.824;2023-06-26T05:50:22;8.13;;;4.53;;
60078;SDS011;45951;45.824;8.824;2023-06-26T05:52:03;7.25;;;4.60;;
60078;SDS011;45951;45.824;8.824;2023-06-26T05:53:43;6.03;;;4.95;;
60078;SDS011;45951;45.824;8.824;2023-06-26T05:55:24;6.15;;;4.22;;
60078;SDS011;45951;45.824;8.824;2023-06-26T05:57:05;5.70;;;4.80;;
60078;SDS011;45951;45.824;8.824;2023-06-26T05:58:46;7.72;;;5.30;;
60078;SDS011;45951;45.824;8.824;2023-06-26T06:00:27;5.55;;;4.28;;
60078;SDS011;45951;45.824;8.824;2023-06-26T06:02:07;7.57;;;4.88;;
60078;SDS011;45951;45.824;8.824;2023-06-26T06:03:48;6.22;;;4.30;;
60078;SDS011;45951;45.824;8.824;2023-06-26T06:05:28;5.95;;;4.70;;
60078;SDS011;45951;45.824;8.824;2023-06-26T06:07:08;7.20;;;4.82;;
60078;SDS011;45951;45.824;8.824;2023-06-26T06:08:49;6.93;;;4.60;;
60078;SDS011;45951;45.824;8.824;2023-06-26T06:10:29;6.47;;;4.93;;
60078;SDS011;45951;45.824;8.824;2023-06-26T06:12:09;7.15;;;4.78;;
60078;SDS011;45951;45.824;8.824;2023-06-26T06:13:50;7.40;;;4.70;;
60078;SDS011;45951;45.824;8.824;2023-06-26T06:15:30;5.63;;;4.65;;
60078;SDS011;45951;45.824;8.824;2023-06-26T06:17:10;8.35;;;4.53;;
60078;SDS011;45951;45.824;8.824;2023-06-26T06:18:51;5.72;;;4.80;;
60078;SDS011;45951;45.824;8.824;2023-06-26T06:20:31;7.10;;;5.15;;
60078;SDS011;45951;45.824;8.824;2023-06-26T06:22:11;5.80;;;4.80;;
60078;SDS011;45951;45.824;8.824;2023-06-26T06:23:52;9.13;;;4.80;;
60078;SDS011;45951;45.824;8.824;2023-06-26T06:25:32;6.88;;;4.65;;
60078;SDS011;45951;45.824;8.824;2023-06-26T06:27:12;5.10;;;4.18;;
60078;SDS011;45951;45.824;8.824;2023-06-26T06:28:53;6.85;;;4.80;;
60078;SDS011;45951;45.824;8.824;2023-06-26T06:30:33;6.07;;;4.88;;
60078;SDS011;45951;45.824;8.824;2023-06-26T06:32:14;5.78;;;4.80;;
60078;SDS011;45951;45.824;8.824;2023-06-26T06:33:54;6.88;;;4.85;;
60078;SDS011;45951;45.824;8.824;2023-06-26T06:35:35;8.32;;;4.95;;
60078;SDS011;45951;45.824;8.824;2023-06-26T06:37:15;6.18;;;4.95;;
60078;SDS011;45951;45.824;8.824;2023-06-26T06:38:56;6.63;;;5.10;;
60078;SDS011;45951;45.824;8.824;2023-06-26T06:40:36;6.95;;;4.57;;
60078;SDS011;45951;45.824;8.824;2023-06-26T06:42:16;7.65;;;4.55;;
60078;SDS011;45951;45.824;8.824;2023-06-26T06:43:56;7.40;;;4.85;;
60078;SDS011;45951;45.824;8.824;2023-06-26T06:45:37;6.45;;;5.22;;
60078;SDS011;45951;45.824;8.824;2023-06-26T06:47:17;7.90;;;4.70;;
60078;SDS011;45951;45.824;8.824;2023-06-26T06:48:58;7.40;;;4.40;;
60078;SDS011;45951;45.824;8.824;2023-06-26T06:50:38;5.70;;;4.72;;
60078;SDS011;45951;45.824;8.824;2023-06-26T06:52:18;7.35;;;4.68;;
60078;SDS011;45951;45.824;8.824;2023-06-26T06:53:59;7.00;;;4.93;;
60078;SDS011;45951;45.824;8.824;2023-06-26T06:55:39;7.75;;;6.18;;
60078;SDS011;45951;45.824;8.824;2023-06-26T06:57:20;7.28;;;5.00;;
60078;SDS011;45951;45.824;8.824;2023-06-26T06:59:01;6.05;;;4.97;;
60078;SDS011;45951;45.824;8.824;2023-06-26T07:00:42;6.53;;;4.80;;
60078;SDS011;45951;45.824;8.824;2023-06-26T07:02:22;6.00;;;4.93;;
60078;SDS011;45951;45.824;8.824;2023-06-26T07:04:03;8.73;;;5.38;;
60078;SDS011;45951;45.824;8.824;2023-06-26T07:05:44;5.38;;;4.70;;
60078;SDS011;45951;45.824;8.824;2023-06-26T07:07:27;5.82;;;5.13;;
60078;SDS011;45951;45.824;8.824;2023-06-26T07:09:08;6.70;;;5.70;;
60078;SDS011;45951;45.824;8.824;2023-06-26T07:10:49;5.80;;;4.70;;
60078;SDS011;45951;45.824;8.824;2023-06-26T07:12:29;6.82;;;5.43;;
60078;SDS011;45951;45.824;8.824;2023-06-26T07:14:09;5.95;;;5.35;;
60078;SDS011;45951;45.824;8.824;2023-06-26T07:15:49;19.65;;;17.83;;
60078;SDS011;45951;45.824;8.824;2023-06-26T07:17:30;16.88;;;15.20;;
60078;SDS011;45951;45.824;8.824;2023-06-26T07:19:14;18.98;;;17.08;;
60078;SDS011;45951;45.824;8.824;2023-06-26T07:20:54;11.35;;;10.27;;
60078;SDS011;45951;45.824;8.824;2023-06-26T07:22:35;8.60;;;7.70;;
60078;SDS011;45951;45.824;8.824;2023-06-26T07:24:16;8.13;;;7.32;;
60078;SDS011;45951;45.824;8.824;2023-06-26T07:25:56;7.85;;;6.22;;
60078;SDS011;45951;45.824;8.824;2023-06-26T07:27:37;7.40;;;5.40;;
60078;SDS011;45951;45.824;8.824;2023-06-26T07:29:17;6.22;;;5.10;;
60078;SDS011;45951;45.824;8.824;2023-06-26T07:30:58;6.63;;;4.95;;
60078;SDS011;45951;45.824;8.824;2023-06-26T07:32:38;7.13;;;5.30;;
60078;SDS011;45951;45.824;8.824;2023-06-26T07:34:20;5.55;;;4.90;;
60078;SDS011;45951;45.824;8.824;2023-06-26T07:36:00;7.50;;;5.28;;
60078;SDS011;45951;45.824;8.824;2023-06-26T07:37:41;5.95;;;5.35;;
60078;SDS011;45951;45.824;8.824;2023-06-26T07:39:21;5.80;;;4.90;;
60078;SDS011;45951;45.824;8.824;2023-06-26T07:41:02;5.88;;;5.38;;
60078;SDS011;45951;45.824;8.824;2023-06-26T07:42:42;7.32;;;5.13;;
60078;SDS011;45951;45.824;8.824;2023-06-26T07:44:22;6.40;;;4.90;;
60078;SDS011;45951;45.824;8.824;2023-06-26T07:46:03;6.13;;;5.43;;
60078;SDS011;45951;45.824;8.824;2023-06-26T07:47:43;6.35;;;5.43;;
60078;SDS011;45951;45.824;8.824;2023-06-26T07:49:23;5.65;;;4.82;;
60078;SDS011;45951;45.824;8.824;2023-06-26T07:51:04;5.68;;;4.70;;
60078;SDS011;45951;45.824;8.824;2023-06-26T07:52:44;5.57;;;5.07;;
60078;SDS011;45951;45.824;8.824;2023-06-26T07:54:25;5.60;;;5.10;;
60078;SDS011;45951;45.824;8.824;2023-06-26T07:56:05;6.38;;;5.78;;
60078;SDS011;45951;45.824;8.824;2023-06-26T07:57:46;6.40;;;5.35;;
60078;SDS011;45951;45.824;8.824;2023-06-26T07:59:27;6.18;;;5.57;;
60078;SDS011;45951;45.824;8.824;2023-06-26T08:01:08;7.32;;;5.35;;
60078;SDS011;45951;45.824;8.824;2023-06-26T08:02:49;6.38;;;5.15;;
60078;SDS011;45951;45.824;8.824;2023-06-26T08:04:29;5.93;;;5.32;;
60078;SDS011;45951;45.824;8.824;2023-06-26T08:06:11;6.28;;;5.10;;
60078;SDS011;45951;45.824;8.824;2023-06-26T08:07:52;6.70;;;5.38;;
60078;SDS011;45951;45.824;8.824;2023-06-26T08:09:32;6.10;;;5.50;;
60078;SDS011;45951;45.824;8.824;2023-06-26T08:11:12;6.85;;;5.60;;
60078;SDS011;45951;45.824;8.824;2023-06-26T08:12:53;6.13;;;5.53;;
60078;SDS011;45951;45.824;8.824;2023-06-26T08:14:33;6.07;;;5.40;;
60078;SDS011;45951;45.824;8.824;2023-06-26T08:16:13;5.87;;;5.20;;
60078;SDS011;45951;45.824;8.824;2023-06-26T08:17:54;6.00;;;5.30;;
60078;SDS011;45951;45.824;8.824;2023-06-26T08:19:34;8.15;;;5.40;;
60078;SDS011;45951;45.824;8.824;2023-06-26T08:21:14;6.65;;;5.85;;
60078;SDS011;45951;45.824;8.824;2023-06-26T08:22:54;6.85;;;5.45;;
60078;SDS011;45951;45.824;8.824;2023-06-26T08:24:35;6.15;;;5.35;;
60078;SDS011;45951;45.824;8.824;2023-06-26T08:26:16;6.60;;;5.13;;
60078;SDS011;45951;45.824;8.824;2023-06-26T08:27:57;8.73;;;5.68;;
60078;SDS011;45951;45.824;8.824;2023-06-26T08:29:37;5.90;;;4.47;;
60078;SDS011;45951;45.824;8.824;2023-06-26T08:31:17;6.32;;;4.55;;
60078;SDS011;45951;45.824;8.824;2023-06-26T08:32:58;5.72;;;4.55;;
60078;SDS011;45951;45.824;8.824;2023-06-26T08:34:38;5.28;;;4.63;;
60078;SDS011;45951;45.824;8.824;2023-06-26T08:36:18;5.47;;;4.07;;
60078;SDS011;45951;45.824;8.824;2023-06-26T08:37:59;6.40;;;4.20;;
60078;SDS011;45951;45.824;8.824;2023-06-26T08:39:39;4.88;;;4.00;;
60078;SDS011;45951;45.824;8.824;2023-06-26T08:41:19;4.75;;;4.00;;
60078;SDS011;45951;45.824;8.824;2023-06-26T08:42:59;6.03;;;4.20;;
60078;SDS011;45951;45.824;8.824;2023-06-26T08:44:40;5.38;;;4.03;;
60078;SDS011;45951;45.824;8.824;2023-06-26T08:46:20;6.05;;;3.80;;
60078;SDS011;45951;45.824;8.824;2023-06-26T08:48:01;5.50;;;3.88;;
60078;SDS011;45951;45.824;8.824;2023-06-26T08:49:46;7.28;;;4.22;;
60078;SDS011;45951;45.824;8.824;2023-06-26T08:51:31;5.78;;;4.07;;
60078;SDS011;45951;45.824;8.824;2023-06-26T08:53:17;5.53;;;3.83;;
60078;SDS011;45951;45.824;8.824;2023-06-26T08:55:05;5.68;;;4.20;;
60078;SDS011;45951;45.824;8.824;2023-06-26T08:56:49;5.68;;;4.38;;
60078;SDS011;45951;45.824;8.824;2023-06-26T08:58:29;5.47;;;4.20;;
60078;SDS011;45951;45.824;8.824;2023-06-26T09:00:10;7.63;;;4.25;;
60078;SDS011;45951;45.824;8.824;2023-06-26T09:01:51;7.57;;;3.80;;
60078;SDS011;45951;45.824;8.824;2023-06-26T09:03:32;5.30;;;3.83;;
60078;SDS011;45951;45.824;8.824;2023-06-26T09:05:12;5.88;;;4.07;;
60078;SDS011;45951;45.824;8.824;2023-06-26T09:06:53;5.80;;;4.20;;
60078;SDS011;45951;45.824;8.824;2023-06-26T09:08:34;6.35;;;4.55;;
60078;SDS011;45951;45.824;8.824;2023-06-26T09:10:14;9.98;;;8.98;;
60078;SDS011;45951;45.824;8.824;2023-06-26T09:11:54;10.68;;;8.80;;
60078;SDS011;45951;45.824;8.824;2023-06-26T09:13:35;7.85;;;6.55;;
60078;SDS011;45951;45.824;8.824;2023-06-26T09:15:16;7.32;;;6.50;;
60078;SDS011;45951;45.824;8.824;2023-06-26T09:16:59;8.20;;;5.38;;
60078;SDS011;45951;45.824;8.824;2023-06-26T09:18:42;5.97;;;4.72;;
60078;SDS011;45951;45.824;8.824;2023-06-26T09:20:23;6.80;;;5.07;;
60078;SDS011;45951;45.824;8.824;2023-06-26T09:22:03;5.63;;;4.22;;
60078;SDS011;45951;45.824;8.824;2023-06-26T09:23:43;7.22;;;4.10;;
60078;SDS011;45951;45.824;8.824;2023-06-26T09:25:24;7.05;;;4.72;;
60078;SDS011;45951;45.824;8.824;2023-06-26T09:27:04;6.95;;;4.10;;
60078;SDS011;45951;45.824;8.824;2023-06-26T09:28:44;6.47;;;4.10;;
60078;SDS011;45951;45.824;8.824;2023-06-26T09:30:25;5.90;;;4.40;;
60078;SDS011;45951;45.824;8.824;2023-06-26T09:32:07;6.75;;;4.10;;
60078;SDS011;45951;45.824;8.824;2023-06-26T09:33:48;6.35;;;3.72;;
60078;SDS011;45951;45.824;8.824;2023-06-26T09:35:30;5.80;;;3.88;;
60078;SDS011;45951;45.824;8.824;2023-06-26T09:37:12;5.50;;;3.88;;
60078;SDS011;45951;45.824;8.824;2023-06-26T09:38:53;5.22;;;4.18;;
60078;SDS011;45951;45.824;8.824;2023-06-26T09:40:33;5.32;;;4.25;;
60078;SDS011;45951;45.824;8.824;2023-06-26T09:42:15;5.22;;;4.05;;
60078;SDS011;45951;45.824;8.824;2023-06-26T09:43:56;4.90;;;3.97;;
60078;SDS011;45951;45.824;8.824;2023-06-26T09:45:40;6.25;;;4.20;;
60078;SDS011;45951;45.824;8.824;2023-06-26T09:47:21;6.53;;;3.88;;
60078;SDS011;45951;45.824;8.824;2023-06-26T09:49:03;5.18;;;3.97;;
60078;SDS011;45951;45.824;8.824;2023-06-26T09:50:50;5.05;;;4.10;;
60078;SDS011;45951;45.824;8.824;2023-06-26T09:52:31;6.97;;;4.22;;
60078;SDS011;45951;45.824;8.824;2023-06-26T09:54:12;7.78;;;4.53;;
60078;SDS011;45951;45.824;8.824;2023-06-26T09:55:52;7.40;;;4.68;;
60078;SDS011;45951;45.824;8.824;2023-06-26T09:57:34;5.32;;;4.13;;
60078;SDS011;45951;45.824;8.824;2023-06-26T09:59:14;5.70;;;4.40;;
60078;SDS011;45951;45.824;8.824;2023-06-26T10:00:55;5.03;;;4.00;;
60078;SDS011;45951;45.824;8.824;2023-06-26T10:02:35;6.82;;;4.38;;
60078;SDS011;45951;45.824;8.824;2023-06-26T10:04:16;5.40;;;4.50;;
60078;SDS011;45951;45.824;8.824;2023-06-26T10:05:56;6.70;;;4.40;;
60078;SDS011;45951;45.824;8.824;2023-06-26T10:07:37;5.60;;;4.40;;
60078;SDS011;45951;45.824;8.824;2023-06-26T10:09:19;6.97;;;4.50;;
60078;SDS011;45951;45.824;8.824;2023-06-26T10:10:59;6.43;;;4.90;;
60078;SDS011;45951;45.824;8.824;2023-06-26T10:12:40;6.00;;;4.38;;